createdAt,value
2023-02-24T00:00:50.217Z,157.69
2023-02-24T00:01:50.222Z,158.22
2023-02-24T00:02:50.292Z,158.79
2023-02-24T00:03:50.243Z,158.39
2023-02-24T00:04:50.241Z,158.65
2023-02-24T00:05:50.289Z,158.41
2023-02-24T00:06:50.246Z,157.11
2023-02-24T00:07:50.337Z,157.66
2023-02-24T00:08:50.267Z,157.31
2023-02-24T00:09:50.284Z,157.05
2023-02-24T00:10:50.294Z,157.55
2023-02-24T00:11:50.299Z,158.12
2023-02-24T00:12:50.311Z,158.43
2023-02-24T00:13:50.316Z,157.84
2023-02-24T00:14:50.322Z,158.00
2023-02-24T00:15:50.394Z,158.19
2023-02-24T00:16:50.426Z,157.17
2023-02-24T00:17:50.356Z,156.74
2023-02-24T00:18:50.368Z,157.69
2023-02-24T00:19:50.366Z,155.67
2023-02-24T00:20:50.378Z,157.59
2023-02-24T00:21:50.391Z,156.52
2023-02-24T00:22:50.408Z,155.99
2023-02-24T00:23:50.432Z,156.83
2023-02-24T00:24:50.431Z,155.56
2023-02-24T00:25:50.442Z,154.77
2023-02-24T00:26:50.434Z,155.82
2023-02-24T00:27:50.462Z,154.98
2023-02-24T00:28:50.467Z,155.83
2023-02-24T00:29:50.477Z,154.24
2023-02-24T00:30:50.550Z,151.11
2023-02-24T00:31:50.751Z,152.90
2023-02-24T00:32:50.649Z,154.70
2023-02-24T00:33:50.516Z,151.19
2023-02-24T00:34:50.534Z,150.78
2023-02-24T00:35:50.531Z,153.59
2023-02-24T00:36:51.343Z,150.03
2023-02-24T00:37:50.552Z,152.82
2023-02-24T00:38:50.569Z,154.19
2023-02-24T00:39:50.590Z,150.31
2023-02-24T00:40:50.585Z,151.99
2023-02-24T00:41:50.599Z,149.76
2023-02-24T00:42:50.689Z,152.28
2023-02-24T00:43:50.622Z,150.36
2023-02-24T00:44:50.627Z,148.25
2023-02-24T00:45:50.710Z,148.97
2023-02-24T00:46:50.654Z,149.30
2023-02-24T00:47:50.674Z,149.49
2023-02-24T00:48:50.680Z,147.08
2023-02-24T00:49:50.709Z,148.24
2023-02-24T00:50:50.700Z,148.38
2023-02-24T00:51:50.713Z,148.66
2023-02-24T00:52:50.733Z,148.21
2023-02-24T00:53:50.744Z,148.04
2023-02-24T00:54:50.758Z,149.96
2023-02-24T00:55:50.766Z,148.11
2023-02-24T00:56:50.768Z,148.43
2023-02-24T00:57:50.778Z,148.71
2023-02-24T00:58:50.790Z,148.36
2023-02-24T00:59:50.801Z,148.34
2023-02-24T01:00:50.837Z,147.08
2023-02-24T01:01:50.904Z,148.53
2023-02-24T01:02:50.822Z,146.96
2023-02-24T01:03:50.893Z,145.44
2023-02-24T01:04:50.848Z,147.34
2023-02-24T01:05:50.856Z,147.93
2023-02-24T01:06:50.869Z,145.61
2023-02-24T01:07:50.896Z,147.71
2023-02-24T01:08:50.890Z,145.17
2023-02-24T01:09:50.924Z,146.17
2023-02-24T01:10:50.906Z,144.98
2023-02-24T01:11:50.942Z,144.91
2023-02-24T01:12:51.016Z,144.21
2023-02-24T01:13:50.941Z,145.43
2023-02-24T01:14:50.949Z,146.04
2023-02-24T01:15:51.041Z,144.38
2023-02-24T01:16:50.984Z,145.03
2023-02-24T01:17:50.990Z,144.94
2023-02-24T01:18:51.007Z,143.91
2023-02-24T01:19:50.998Z,145.40
2023-02-24T01:20:51.026Z,144.14
2023-02-24T01:21:51.024Z,144.02
2023-02-24T01:22:51.020Z,145.81
2023-02-24T01:23:51.041Z,143.49
2023-02-24T01:24:51.050Z,143.07
2023-02-24T01:25:51.070Z,142.68
2023-02-24T01:26:51.091Z,143.88
2023-02-24T01:27:51.073Z,142.13
2023-02-24T01:28:51.075Z,143.72
2023-02-24T01:29:51.085Z,143.14
2023-02-24T01:30:51.132Z,142.87
2023-02-24T01:31:51.263Z,142.29
2023-02-24T01:32:51.420Z,143.05
2023-02-24T01:33:51.141Z,143.76
2023-02-24T01:34:51.171Z,141.82
2023-02-24T01:35:51.181Z,141.52
2023-02-24T01:36:51.169Z,141.76
2023-02-24T01:37:51.183Z,142.47
2023-02-24T01:38:51.203Z,143.03
2023-02-24T01:39:51.251Z,142.89
2023-02-24T01:40:51.353Z,142.08
2023-02-24T01:41:51.217Z,141.94
2023-02-24T01:42:51.226Z,141.93
2023-02-24T01:43:51.243Z,141.11
2023-02-24T01:44:51.255Z,140.53
2023-02-24T01:45:51.271Z,141.94
2023-02-24T01:46:51.340Z,140.23
2023-02-24T01:47:51.324Z,142.63
2023-02-24T01:48:51.307Z,141.77
2023-02-24T01:49:51.330Z,141.80
2023-02-24T01:50:51.337Z,140.95
2023-02-24T01:51:51.352Z,141.98
2023-02-24T01:52:51.357Z,140.62
2023-02-24T01:53:51.388Z,140.97
2023-02-24T01:54:51.400Z,140.80
2023-02-24T01:55:51.413Z,141.26
2023-02-24T01:56:51.417Z,140.82
2023-02-24T01:57:51.426Z,139.48
2023-02-24T01:58:51.496Z,139.14
2023-02-24T04:54:53.069Z,114.38
2023-02-24T04:55:53.075Z,113.78
2023-02-24T04:56:53.177Z,115.67
2023-02-24T04:57:53.100Z,113.03
2023-02-24T04:58:53.118Z,111.82
2023-02-24T04:59:53.114Z,111.80
2023-02-24T05:00:53.190Z,113.27
2023-02-24T05:01:53.167Z,112.42
2023-02-24T05:03:53.233Z,111.82
2023-02-24T05:04:53.207Z,111.58
2023-02-24T05:05:53.330Z,112.97
2023-02-24T05:06:53.264Z,111.16
2023-02-24T05:07:53.252Z,111.53
2023-02-24T05:08:53.338Z,113.25
2023-02-24T05:09:53.269Z,111.85
2023-02-24T05:10:53.351Z,110.65
2023-02-24T05:11:53.304Z,110.79
2023-02-24T05:12:53.324Z,109.40
2023-02-24T05:13:53.350Z,111.10
2023-02-24T05:14:54.329Z,110.50
2023-02-24T05:15:53.404Z,108.70
2023-02-24T05:16:53.396Z,111.82
2023-02-24T05:17:53.400Z,110.36
2023-02-24T05:18:53.417Z,110.26
2023-02-24T05:19:53.425Z,110.49
2023-02-24T05:20:53.435Z,110.51
2023-02-24T05:21:53.454Z,111.29
2023-02-24T05:22:53.471Z,110.14
2023-02-24T05:23:53.476Z,111.40
2023-02-24T05:24:53.481Z,111.02
2023-02-24T05:25:53.568Z,110.72
2023-02-24T05:26:53.512Z,109.47
2023-02-24T05:27:53.532Z,110.46
2023-02-24T05:28:53.540Z,110.99
2023-02-24T05:29:55.405Z,110.38
2023-02-24T05:30:54.663Z,110.46
2023-02-24T05:31:53.690Z,108.62
2023-02-24T05:32:53.614Z,108.83
2023-02-24T05:33:53.569Z,108.95
2023-02-24T05:34:53.582Z,109.55
2023-02-24T05:35:53.579Z,110.53
2023-02-24T05:36:53.581Z,109.43
2023-02-24T05:37:53.585Z,109.24
2023-02-24T05:38:55.555Z,110.13
2023-02-24T05:39:53.600Z,108.63
2023-02-24T05:40:53.613Z,109.01
2023-02-24T05:41:53.616Z,110.95
2023-02-24T05:42:53.631Z,108.83
2023-02-24T05:43:53.636Z,108.30
2023-02-24T05:44:53.644Z,109.11
2023-02-24T05:45:53.650Z,109.88
2023-02-24T05:46:53.747Z,107.99
2023-02-24T05:47:53.672Z,108.73
2023-02-24T05:48:53.684Z,109.78
2023-02-24T05:49:53.688Z,108.31
2023-02-24T05:50:53.700Z,108.31
2023-02-24T05:51:53.710Z,107.53
2023-02-24T05:52:53.709Z,108.40
2023-02-24T05:53:53.719Z,106.39
2023-02-24T05:54:53.725Z,107.42
2023-02-24T05:55:53.733Z,108.02
2023-02-24T05:56:53.741Z,107.43
2023-02-24T05:57:53.739Z,108.52
2023-02-24T05:58:54.825Z,108.48
2023-02-24T05:59:53.751Z,107.93
2023-02-24T06:00:53.809Z,107.40
2023-02-24T06:01:53.819Z,106.68
2023-02-24T06:02:53.806Z,107.70
2023-02-24T06:03:53.779Z,108.13
2023-02-24T06:04:53.950Z,107.99
2023-02-24T06:05:53.820Z,109.30
2023-02-24T06:06:54.324Z,108.17
2023-02-24T06:07:53.818Z,107.32
2023-02-24T06:08:53.826Z,106.77
2023-02-24T06:09:54.082Z,106.33
2023-02-24T06:10:53.851Z,106.11
2023-02-24T06:11:53.935Z,103.95
2023-02-24T06:12:55.163Z,108.32
2023-02-24T06:13:53.862Z,108.34
2023-02-24T06:14:53.966Z,108.18
2023-02-24T06:15:53.890Z,107.87
2023-02-24T06:16:53.907Z,109.65
2023-02-24T06:17:53.921Z,109.80
2023-02-24T06:18:53.937Z,109.98
2023-02-24T06:19:53.939Z,108.73
2023-02-24T06:20:53.964Z,107.93
2023-02-24T06:21:53.972Z,109.88
2023-02-24T06:22:53.976Z,109.00
2023-02-24T06:23:54.040Z,109.19
2023-02-24T06:24:53.998Z,112.03
2023-02-24T06:25:54.003Z,112.52
2023-02-24T06:26:55.008Z,112.74
2023-02-24T06:27:54.019Z,113.82
2023-02-24T06:28:54.126Z,117.07
2023-02-24T06:29:54.466Z,121.64
2023-02-24T06:30:54.052Z,127.99
2023-02-24T06:31:54.200Z,131.26
2023-02-24T06:32:54.134Z,130.62
2023-02-24T06:33:54.079Z,128.21
2023-02-24T06:34:54.339Z,132.16
2023-02-24T06:35:54.114Z,132.76
2023-02-24T06:36:54.092Z,131.49
2023-02-24T06:37:55.964Z,132.07
2023-02-24T06:38:54.106Z,133.28
2023-02-24T06:39:54.114Z,134.15
2023-02-24T06:40:54.121Z,135.14
2023-02-24T06:41:54.126Z,134.52
2023-02-24T06:42:54.141Z,135.55
2023-02-24T06:43:54.130Z,135.30
2023-02-24T06:44:54.143Z,137.02
2023-02-24T06:45:54.191Z,134.34
2023-02-24T06:46:55.156Z,134.44
2023-02-24T06:47:54.161Z,134.82
2023-02-24T06:48:54.161Z,135.02
2023-02-24T06:49:54.186Z,135.18
2023-02-24T06:50:54.180Z,133.62
2023-02-24T06:51:54.182Z,134.88
2023-02-24T06:52:54.190Z,133.80
2023-02-24T06:53:54.220Z,133.58
2023-02-24T06:54:54.202Z,133.17
2023-02-24T06:55:54.357Z,134.28
2023-02-24T06:56:54.214Z,132.93
2023-02-24T06:57:54.219Z,132.97
2023-02-24T06:58:54.222Z,132.91
2023-02-24T06:59:54.314Z,132.56
2023-02-24T07:00:54.826Z,122.94
2023-02-24T07:01:54.249Z,115.04
2023-02-24T07:02:54.377Z,116.01
2023-02-24T07:03:54.308Z,120.58
2023-02-24T07:04:54.333Z,122.70
2023-02-24T07:05:54.525Z,123.58
2023-02-24T07:06:54.291Z,123.14
2023-02-24T07:07:54.315Z,123.55
2023-02-24T07:08:54.310Z,125.80
2023-02-24T07:09:54.320Z,124.02
2023-02-24T07:10:54.331Z,127.32
2023-02-24T07:11:54.344Z,127.15
2023-02-24T07:12:54.355Z,126.78
2023-02-24T07:13:54.422Z,129.19
2023-02-24T07:14:54.383Z,127.82
2023-02-24T07:15:54.380Z,126.30
2023-02-24T07:16:55.081Z,127.13
2023-02-24T07:17:54.407Z,127.55
2023-02-24T07:18:54.418Z,127.71
2023-02-24T07:19:54.436Z,127.95
2023-02-24T07:20:54.842Z,126.67
2023-02-24T07:21:54.450Z,129.98
2023-02-24T07:22:54.459Z,129.42
2023-02-24T07:23:55.049Z,132.53
2023-02-24T07:24:54.481Z,132.22
2023-02-24T07:25:54.546Z,127.44
2023-02-24T07:26:54.546Z,127.75
2023-02-24T07:27:54.515Z,131.08
2023-02-24T07:28:54.523Z,133.39
2023-02-24T07:29:54.544Z,137.53
2023-02-24T07:30:54.630Z,139.81
2023-02-24T07:31:54.847Z,138.42
2023-02-24T07:32:57.328Z,139.23
2023-02-24T07:33:58.327Z,139.55
2023-02-24T07:34:55.272Z,139.57
2023-02-24T07:35:54.578Z,140.06
2023-02-24T07:36:54.665Z,139.95
2023-02-24T07:37:54.578Z,141.11
2023-02-24T07:38:54.614Z,139.94
2023-02-24T07:39:54.608Z,140.18
2023-02-24T07:40:54.620Z,141.32
2023-02-24T07:41:54.624Z,140.26
2023-02-24T07:42:55.247Z,139.12
2023-02-24T07:43:54.648Z,138.85
2023-02-24T07:44:54.865Z,138.55
2023-02-24T07:45:54.688Z,138.79
2023-02-24T07:46:54.719Z,138.86
2023-02-24T07:47:54.669Z,140.45
2023-02-24T07:48:55.321Z,140.81
2023-02-24T07:49:54.694Z,140.02
2023-02-24T07:50:54.700Z,143.51
2023-02-24T07:51:54.730Z,143.21
2023-02-24T07:52:54.711Z,142.29
2023-02-24T07:53:54.764Z,142.09
2023-02-24T07:54:54.737Z,141.93
2023-02-24T07:55:54.726Z,139.78
2023-02-24T07:56:54.785Z,136.51
2023-02-24T07:57:54.745Z,137.91
2023-02-24T07:58:54.749Z,138.36
2023-02-24T07:59:54.770Z,136.75
2023-02-24T08:00:54.776Z,136.35
2023-02-24T08:01:54.782Z,135.75
2023-02-24T08:02:54.823Z,134.86
2023-02-24T08:03:54.860Z,135.83
2023-02-24T08:08:54.847Z,135.64
2023-02-24T08:14:56.200Z,131.25
2023-02-24T08:17:57.406Z,130.74
2023-02-24T08:18:55.003Z,130.84
2023-02-24T08:19:54.958Z,131.13
2023-02-24T08:20:54.956Z,133.84
2023-02-24T08:21:54.974Z,140.52
2023-02-24T08:22:55.081Z,151.58
2023-02-24T08:23:54.986Z,157.83
2023-02-24T08:24:54.999Z,154.53
2023-02-24T08:25:55.002Z,150.46
2023-02-24T08:26:55.005Z,150.65
2023-02-24T08:28:06.322Z,148.13
2023-02-24T08:28:56.050Z,148.35
2023-02-24T08:29:55.016Z,148.68
2023-02-24T08:30:55.138Z,148.95
2023-02-24T08:31:55.176Z,149.23
2023-02-24T08:32:55.058Z,148.88
2023-02-24T08:33:55.011Z,149.21
2023-02-24T08:34:55.816Z,147.26
2023-02-24T08:35:55.024Z,148.47
2023-02-24T08:36:55.813Z,148.26
2023-02-24T08:38:55.019Z,146.23
2023-02-24T08:39:55.139Z,144.68
2023-02-24T08:40:55.218Z,147.63
2023-02-24T08:41:55.073Z,145.09
2023-02-24T08:42:55.012Z,145.95
2023-02-24T08:43:55.020Z,145.88
2023-02-24T08:44:55.028Z,145.90
2023-02-24T09:34:56.021Z,73.63
2023-02-24T09:35:56.058Z,87.11
2023-02-24T09:36:56.820Z,85.20
2023-02-24T09:37:56.829Z,88.80
2023-02-24T09:38:56.300Z,88.84
2023-02-24T09:39:56.339Z,92.72
2023-02-24T09:40:56.407Z,98.14
2023-02-24T09:41:56.558Z,100.77
2023-02-24T09:42:56.536Z,106.75
2023-02-24T09:43:56.609Z,113.43
2023-02-24T09:44:56.675Z,118.09
2023-02-24T09:45:56.790Z,118.87
2023-02-24T09:46:56.900Z,120.45
2023-02-24T09:47:57.231Z,124.18
2023-02-24T09:48:57.870Z,124.34
2023-02-24T09:49:56.824Z,124.99
2023-02-24T09:51:03.118Z,126.60
2023-02-24T09:51:57.838Z,124.46
2023-02-24T09:53:02.885Z,125.52
2023-02-24T09:53:57.842Z,124.63
2023-02-24T09:54:56.831Z,125.55
2023-02-24T09:55:57.787Z,128.22
2023-02-24T09:56:56.838Z,130.87
2023-02-24T09:57:57.743Z,135.23
2023-02-24T09:58:56.849Z,134.89
2023-02-24T09:59:56.854Z,135.07
2023-02-24T10:00:56.925Z,133.25
2023-02-24T10:01:56.912Z,132.31
2023-02-24T10:02:57.822Z,130.09
2023-02-24T10:03:56.986Z,129.62
2023-02-24T10:04:59.806Z,131.61
2023-02-24T10:05:58.056Z,131.80
2023-02-24T10:06:57.041Z,132.13
2023-02-24T10:07:57.220Z,132.84
2023-02-24T10:08:57.827Z,134.54
2023-02-24T10:09:57.070Z,137.24
2023-02-24T10:10:57.064Z,139.58
2023-02-24T10:11:57.057Z,137.92
2023-02-24T10:12:57.120Z,141.22
2023-02-24T10:14:03.522Z,142.96
2023-02-24T10:15:00.526Z,143.08
2023-02-24T10:15:57.477Z,143.13
2023-02-24T10:16:57.121Z,143.00
2023-02-24T10:17:57.074Z,141.28
2023-02-24T10:18:57.079Z,137.56
2023-02-24T10:19:57.086Z,136.72
2023-02-24T10:20:57.130Z,135.51
2023-02-24T10:21:57.106Z,137.91
2023-02-24T10:22:57.104Z,141.23
2023-02-24T10:23:57.152Z,143.69
2023-02-24T10:24:57.108Z,144.54
2023-02-24T10:25:57.131Z,143.49
2023-02-24T10:27:01.126Z,155.98
2023-02-24T10:27:58.114Z,156.30
2023-02-24T10:28:57.111Z,157.35
2023-02-24T10:29:57.113Z,159.24
2023-02-24T10:30:57.180Z,163.29
2023-02-24T10:31:57.366Z,166.92
2023-02-24T10:32:57.179Z,167.10
2023-02-24T10:33:57.138Z,169.33
2023-02-24T10:34:57.112Z,169.97
2023-02-24T10:35:57.159Z,169.86
2023-02-24T10:36:57.246Z,170.90
2023-02-24T10:37:57.300Z,172.00
2023-02-24T10:38:57.388Z,171.07
2023-02-24T10:39:57.446Z,172.85
2023-02-24T10:40:57.519Z,171.84
2023-02-24T10:41:57.921Z,169.90
2023-02-24T10:42:57.671Z,168.64
2023-02-24T10:43:57.796Z,165.16
2023-02-24T10:45:01.966Z,164.60
2023-02-24T10:45:58.823Z,164.25
2023-02-24T10:46:57.859Z,159.49
2023-02-24T10:47:57.809Z,155.72
2023-02-24T10:48:57.834Z,153.23
2023-02-24T10:49:57.828Z,132.63
2023-02-24T10:50:57.817Z,124.40
2023-02-24T10:51:57.821Z,111.68
2023-02-24T10:52:58.818Z,110.19
2023-02-24T10:53:57.886Z,115.07
2023-02-24T10:54:57.960Z,120.65
2023-02-24T10:55:58.817Z,139.07
2023-02-24T10:56:58.098Z,128.29
2023-02-24T10:57:59.539Z,125.48
2023-02-24T10:59:01.499Z,98.94
2023-02-24T10:59:58.484Z,93.65
2023-02-24T11:00:58.860Z,91.59
2023-02-24T11:01:59.345Z,91.43
2023-02-24T11:02:58.374Z,92.01
2023-02-24T11:03:58.371Z,96.72
2023-02-24T11:04:58.396Z,108.88
2023-02-24T11:05:58.377Z,111.68
2023-02-24T11:06:58.419Z,104.36
2023-02-24T11:07:58.379Z,110.83
2023-02-24T11:08:58.373Z,120.79
2023-02-24T11:09:58.382Z,122.20
2023-02-24T11:10:58.378Z,119.55
2023-02-24T11:11:58.371Z,113.69
2023-02-24T11:13:08.019Z,111.08
2023-02-24T11:13:59.373Z,111.23
2023-02-24T11:14:58.403Z,111.73
2023-02-24T11:15:58.449Z,113.77
2023-02-24T11:16:58.391Z,117.23
2023-02-24T11:17:58.450Z,121.51
2023-02-24T11:18:58.395Z,124.00
2023-02-24T11:19:58.451Z,129.50
2023-02-24T11:20:58.812Z,129.66
2023-02-24T11:21:58.406Z,132.16
2023-02-24T11:22:59.314Z,140.53
2023-02-24T11:23:58.417Z,143.76
2023-02-24T11:25:01.545Z,144.09
2023-02-24T11:25:58.387Z,146.43
2023-02-24T11:26:58.389Z,150.68
2023-02-24T11:27:58.399Z,158.09
2023-02-24T11:28:58.400Z,167.69
2023-02-24T11:29:58.384Z,172.65
2023-02-24T11:30:59.448Z,174.79
2023-02-24T11:31:58.449Z,177.25
2023-02-24T11:32:58.439Z,178.30
2023-02-24T11:33:58.368Z,180.26
2023-02-24T11:34:58.365Z,179.84
2023-02-24T11:35:58.377Z,180.80
2023-02-24T11:36:58.363Z,180.94
2023-02-24T11:37:58.424Z,182.88
2023-02-24T11:39:08.383Z,183.82
2023-02-24T11:39:59.349Z,183.95
2023-02-24T11:40:58.361Z,184.14
2023-02-24T11:41:58.367Z,184.97
2023-02-24T11:42:58.356Z,185.88
2023-02-24T11:43:58.365Z,187.53
2023-02-24T11:44:58.357Z,188.65
2023-02-24T11:45:58.499Z,186.98
2023-02-24T11:46:58.375Z,188.76
2023-02-24T11:47:58.374Z,188.86
2023-02-24T11:48:58.463Z,186.43
2023-02-24T11:49:58.506Z,187.99
2023-02-24T11:50:58.573Z,187.27
2023-02-24T11:51:58.619Z,188.06
2023-02-24T11:52:58.698Z,189.07
2023-02-24T11:53:58.802Z,188.63
2023-02-24T11:54:58.828Z,190.55
2023-02-24T11:55:59.358Z,191.16
2023-02-24T11:56:58.971Z,191.44
2023-02-24T11:57:59.004Z,191.42
2023-02-24T11:58:59.059Z,192.46
2023-02-24T11:59:59.156Z,191.05
2023-02-24T12:00:59.205Z,191.78
2023-02-24T12:01:59.277Z,190.64
2023-02-24T12:02:59.452Z,193.45
2023-02-24T12:03:59.455Z,193.49
2023-02-24T12:04:59.430Z,193.10
2023-02-24T12:05:59.582Z,192.92
2023-02-24T12:06:59.547Z,193.34
2023-02-24T12:07:59.620Z,191.74
2023-02-24T12:08:59.677Z,190.43
2023-02-24T12:10:10.630Z,189.71
2023-02-24T12:11:00.729Z,189.75
2023-02-24T12:11:59.731Z,188.76
2023-02-24T12:12:59.716Z,185.61
2023-02-24T12:13:59.731Z,185.18
2023-02-24T12:14:59.730Z,186.12
2023-02-24T12:15:59.771Z,185.36
2023-02-24T12:16:59.730Z,187.96
2023-02-24T12:17:59.782Z,189.24
2023-02-24T12:18:59.724Z,188.57
2023-02-24T12:19:59.739Z,183.13
2023-02-24T12:20:59.744Z,184.45
2023-02-24T12:21:59.738Z,192.50
2023-02-24T12:22:59.767Z,192.40
2023-02-24T12:23:59.732Z,192.44
2023-02-24T12:24:59.742Z,192.78
2023-02-24T12:25:59.784Z,191.53
2023-02-24T12:26:59.855Z,192.93
2023-02-24T12:27:59.939Z,193.40
2023-02-24T12:28:59.986Z,193.57
2023-02-24T12:31:00.200Z,195.34
2023-02-24T12:32:00.285Z,196.00
2023-02-24T12:33:00.384Z,197.39
2023-02-24T12:34:00.214Z,199.02
2023-02-24T12:35:00.848Z,198.23
2023-02-24T12:36:00.250Z,199.39
2023-02-24T12:37:00.282Z,199.40
2023-02-24T12:38:00.433Z,201.12
2023-02-24T12:39:00.333Z,199.42
2023-02-24T12:40:00.373Z,201.57
2023-02-24T12:41:00.405Z,199.65
2023-02-24T12:42:00.469Z,198.02
2023-02-24T12:43:00.526Z,196.52
2023-02-24T12:44:00.585Z,198.34
2023-02-24T12:45:00.786Z,199.86
2023-02-24T12:46:00.753Z,200.01
2023-02-24T12:47:00.807Z,201.72
2023-02-24T12:48:00.789Z,200.08
2023-02-24T12:49:00.820Z,202.23
2023-02-24T12:50:00.916Z,201.90
2023-02-24T12:51:00.969Z,201.98
2023-02-24T12:52:00.965Z,203.18
2023-02-24T12:53:01.016Z,205.31
2023-02-24T12:54:01.069Z,204.60
2023-02-24T12:55:01.153Z,204.61
2023-02-24T12:56:01.271Z,204.31
2023-02-24T12:57:01.284Z,205.08
2023-02-24T12:58:01.412Z,204.90
2023-02-24T12:59:01.441Z,206.71
2023-02-24T13:00:01.501Z,206.36
2023-02-24T13:01:01.602Z,205.96
2023-02-24T13:02:01.635Z,205.02
2023-02-24T13:03:01.617Z,206.13
2023-02-24T13:04:01.664Z,211.90
2023-02-24T13:05:01.725Z,208.35
2023-02-24T13:06:01.730Z,208.95
2023-02-24T13:07:01.816Z,208.65
2023-02-24T13:08:01.883Z,206.66
2023-02-24T13:09:01.938Z,205.94
2023-02-24T13:10:01.992Z,204.89
2023-02-24T13:11:02.043Z,205.92
2023-02-24T13:12:02.075Z,204.13
2023-02-24T13:13:02.116Z,209.89
2023-02-24T13:14:02.144Z,207.45
2023-02-24T13:15:02.178Z,200.77
2023-02-24T13:16:02.218Z,195.58
2023-02-24T13:17:02.261Z,194.58
2023-02-24T13:18:02.306Z,196.25
2023-02-24T13:19:02.302Z,195.98
2023-02-24T13:20:02.318Z,197.77
2023-02-24T13:21:02.361Z,196.94
2023-02-24T13:22:02.381Z,198.13
2023-02-24T13:23:02.406Z,198.80
2023-02-24T13:24:02.414Z,198.01
2023-02-24T13:25:02.422Z,199.08
2023-02-24T13:26:02.444Z,197.07
2023-02-24T14:21:04.543Z,157.26
2023-02-24T14:22:04.571Z,164.55
2023-02-24T14:23:04.606Z,166.19
2023-02-24T14:24:04.649Z,168.00
2023-02-24T14:25:04.678Z,170.93
2023-02-24T14:26:04.717Z,171.40
2023-02-24T14:27:04.759Z,174.44
2023-02-24T14:28:04.849Z,175.21
2023-02-24T14:29:04.825Z,173.98
2023-02-24T14:30:04.864Z,177.26
2023-02-24T14:31:04.998Z,179.52
2023-02-24T14:32:05.058Z,180.61
2023-02-24T14:33:04.971Z,182.90
2023-02-24T14:34:04.997Z,180.64
2023-02-24T14:35:05.031Z,182.25
2023-02-24T14:36:05.043Z,184.04
2023-02-24T14:37:05.096Z,184.72
2023-02-24T14:38:05.181Z,184.89
2023-02-24T14:59:05.961Z,194.12
2023-02-24T15:00:06.074Z,192.79
2023-02-24T15:01:06.150Z,193.56
2023-02-24T15:59:07.769Z,192.64
2023-02-24T16:00:07.769Z,194.62
2023-02-24T16:01:08.323Z,194.80
2023-02-24T16:02:07.843Z,193.51
2023-02-24T16:03:07.776Z,194.21
2023-02-24T16:04:07.818Z,192.08
2023-02-24T16:05:07.808Z,194.68
2023-02-24T16:06:07.808Z,194.31
2023-02-24T16:07:07.828Z,192.93
2023-02-24T16:08:07.837Z,194.79
2023-02-24T16:09:07.859Z,194.65
2023-02-24T16:10:07.882Z,194.75
2023-02-24T16:11:07.874Z,195.25
2023-02-24T16:25:07.942Z,191.94
2023-02-24T16:26:07.977Z,190.71
2023-02-24T17:17:08.230Z,178.31
2023-02-24T17:18:08.141Z,179.97
2023-02-24T17:19:08.111Z,178.92
2023-02-24T17:20:08.093Z,177.72
2023-02-24T17:21:08.105Z,177.71
2023-02-24T17:22:08.102Z,178.45
2023-02-24T17:23:08.106Z,177.27
2023-02-24T17:24:08.124Z,175.51
2023-02-24T17:25:08.139Z,176.65
2023-02-24T17:26:08.153Z,176.54
2023-02-24T17:27:08.156Z,176.82
2023-02-24T17:28:08.160Z,176.18
2023-02-24T17:29:08.162Z,172.52
2023-02-24T17:30:08.164Z,174.54
2023-02-24T17:31:08.282Z,177.14
2023-02-24T17:32:08.490Z,177.09
2023-02-24T17:33:08.183Z,174.11
2023-02-24T17:34:08.786Z,173.97
2023-02-24T17:35:08.188Z,174.76
2023-02-24T17:36:08.180Z,170.39
2023-02-24T17:37:08.201Z,172.81
2023-02-24T17:38:08.215Z,171.38
2023-02-24T17:39:08.214Z,169.34
2023-02-24T17:40:08.209Z,170.00
2023-02-24T17:41:08.221Z,170.54
2023-02-24T17:42:08.246Z,172.05
2023-02-24T17:43:08.241Z,172.48
2023-02-24T17:44:08.262Z,175.67
2023-02-24T17:45:08.267Z,172.49
2023-02-24T17:46:08.318Z,174.90
2023-02-24T17:47:08.268Z,169.94
2023-02-24T17:48:08.268Z,169.15
2023-02-24T17:49:08.275Z,167.01
2023-02-24T17:50:08.276Z,167.62
2023-02-24T17:51:08.284Z,169.13
2023-02-24T17:52:08.294Z,164.50
2023-02-24T17:53:08.298Z,167.05
2023-02-24T17:54:08.387Z,166.94
2023-02-24T17:55:08.323Z,168.19
2023-02-24T17:56:08.315Z,166.97
2023-02-24T17:57:08.332Z,163.59
2023-02-24T17:58:08.329Z,165.55
2023-02-24T17:59:08.334Z,165.51
2023-02-24T18:00:08.373Z,164.92
2023-02-24T18:01:08.343Z,163.99
2023-02-24T18:02:08.420Z,162.24
2023-02-24T18:03:08.591Z,162.69
2023-02-24T18:04:08.376Z,168.43
2023-02-24T18:05:08.369Z,163.07
2023-02-24T18:06:08.398Z,163.73
2023-02-24T18:07:08.380Z,162.95
2023-02-24T18:08:08.377Z,162.69
2023-02-24T18:09:08.398Z,163.32
2023-02-24T18:10:08.395Z,162.16
2023-02-24T18:11:08.399Z,162.00
2023-02-24T18:12:08.401Z,162.96
2023-02-24T18:13:08.400Z,162.89
2023-02-24T18:14:08.397Z,162.98
2023-02-24T18:15:09.537Z,161.46
2023-02-24T18:16:08.564Z,161.40
2023-02-24T18:17:08.492Z,161.73
2023-02-24T18:18:08.411Z,161.32
2023-02-24T18:19:08.409Z,160.42
2023-02-24T18:20:08.414Z,160.71
2023-02-24T18:21:08.495Z,160.37
2023-02-24T18:22:08.415Z,159.81
2023-02-24T18:23:08.425Z,160.54
2023-02-24T18:24:08.432Z,159.25
2023-02-24T18:25:08.439Z,160.14
2023-02-24T18:26:08.450Z,159.24
2023-02-24T18:27:08.452Z,160.23
2023-02-24T18:28:08.458Z,160.08
2023-02-24T18:29:08.453Z,158.36
2023-02-24T18:30:08.452Z,161.29
2023-02-24T18:31:08.594Z,159.15
2023-02-24T18:32:08.690Z,159.18
2023-02-24T18:33:08.622Z,156.96
2023-02-24T18:34:08.485Z,158.24
2023-02-24T18:35:08.495Z,158.73
2023-02-24T18:36:08.494Z,158.44
2023-02-24T18:37:08.505Z,157.98
2023-02-24T18:39:08.500Z,156.16
2023-02-24T18:40:08.531Z,157.42
2023-02-24T18:41:08.530Z,157.31
2023-02-24T18:42:08.533Z,156.53
2023-02-24T18:43:08.593Z,156.81
2023-02-24T18:44:08.528Z,154.36
2023-02-24T18:45:08.532Z,158.14
2023-02-24T18:46:08.566Z,157.32
2023-02-24T18:47:08.538Z,156.25
2023-02-24T18:48:08.532Z,155.63
2023-02-24T18:49:08.544Z,155.04
2023-02-24T18:50:08.541Z,153.51
2023-02-24T18:51:08.558Z,154.04
2023-02-24T18:52:08.555Z,154.17
2023-02-24T18:53:08.548Z,153.73
2023-02-24T18:54:08.559Z,152.54
2023-02-24T18:55:08.576Z,154.44
2023-02-24T18:56:08.571Z,152.88
2023-02-24T18:57:08.566Z,154.73
2023-02-24T18:58:08.574Z,153.78
2023-02-24T18:59:08.579Z,153.74
2023-02-24T19:00:08.582Z,153.74
2023-02-24T19:01:08.600Z,152.29
2023-02-24T19:02:08.620Z,153.43
2023-02-24T19:03:08.675Z,152.50
2023-02-24T19:04:08.632Z,152.31
2023-02-24T19:05:08.606Z,152.27
2023-02-24T19:06:08.615Z,155.04
2023-02-24T19:07:08.622Z,153.83
2023-02-24T19:08:08.658Z,153.04
2023-02-24T19:09:08.636Z,153.18
2023-02-24T19:10:08.644Z,153.33
2023-02-24T19:11:08.656Z,151.09
2023-02-24T19:12:08.652Z,151.07
2023-02-24T19:13:08.679Z,151.38
2023-02-24T19:14:10.390Z,152.42
2023-02-24T19:15:08.681Z,151.03
2023-02-24T19:16:08.717Z,150.97
2023-02-24T19:17:08.709Z,151.41
2023-02-24T19:18:08.688Z,151.05
2023-02-24T19:19:08.690Z,150.48
2023-02-24T19:20:08.700Z,151.67
2023-02-24T19:21:08.762Z,151.72
2023-02-24T19:22:08.688Z,149.67
2023-02-24T22:46:09.170Z,115.06
2023-02-24T22:47:09.236Z,118.39
2023-02-24T22:48:09.232Z,116.89
2023-02-24T22:50:09.236Z,115.93
2023-02-24T22:51:09.177Z,115.58
2023-02-24T22:52:09.174Z,115.78
2023-02-24T22:53:09.189Z,117.22
2023-02-24T22:54:09.181Z,115.35
2023-02-24T22:55:09.187Z,115.91
2023-02-24T22:56:09.235Z,118.44
2023-02-24T22:58:09.198Z,113.89
2023-02-24T22:59:09.237Z,117.25
2023-02-24T23:00:09.199Z,116.29
2023-02-24T23:01:09.223Z,112.89
2023-02-24T23:02:09.200Z,116.69
2023-02-24T23:03:09.283Z,113.90
2023-02-24T23:04:09.281Z,115.30
2023-02-24T23:05:09.207Z,114.77
2023-02-24T23:06:09.224Z,112.68
2023-02-24T23:07:09.212Z,114.22